< < Back
Terminal Aerodrome Forecast


Current Version              Previous Versions:   1  2  3  4  5  6  7  8  9  

Terminal Aerodrome Forecast

682
FTUS44 KBMX 250929 AAA
TAFMGM
TAF AMD
KMGM 250929Z 2509/2606 11007KT P6SM SCT025 BKN060
      TEMPO 2511/2514 BKN025
     FM251700 14006KT 5SM SHRA VCTS SCT020 BKN040CB=



Latest METAR

211
SAUS80 KWBC 251900 RRB
MTRMGM
METAR KMGM 251853Z 25007KT 2SM VCTS HZ OVC026 23/18 A3018 RMK AO2 LTG
DSNT ALQDS TSE19B25 PRESRR SLP217 T02280183


USA.gov is the U.S. government's official web portal to all federal, state and local government web resources and services.